sensor_id;sensor_type;location;lat;lon;timestamp;pressure;altitude;pressure_sealevel;temperature;humidity
19526;BME280;9907;42.676;26.348;2023-03-01T00:01:01;99703.47;;;6.61;100.00
19526;BME280;9907;42.676;26.348;2023-03-01T00:03:26;99709.53;;;6.63;100.00
19526;BME280;9907;42.676;26.348;2023-03-01T00:05:52;99706.13;;;6.61;100.00
19526;BME280;9907;42.676;26.348;2023-03-01T00:08:17;99695.59;;;6.60;100.00
19526;BME280;9907;42.676;26.348;2023-03-01T00:10:43;99704.13;;;6.65;100.00
19526;BME280;9907;42.676;26.348;2023-03-01T00:13:17;99699.09;;;6.60;100.00
19526;BME280;9907;42.676;26.348;2023-03-01T00:15:43;99699.97;;;6.61;100.00
19526;BME280;9907;42.676;26.348;2023-03-01T00:18:08;99703.16;;;6.66;100.00
19526;BME280;9907;42.676;26.348;2023-03-01T00:20:34;99707.44;;;6.68;100.00
19526;BME280;9907;42.676;26.348;2023-03-01T00:22:59;99700.41;;;6.67;100.00
19526;BME280;9907;42.676;26.348;2023-03-01T00:25:25;99704.88;;;6.67;100.00
19526;BME280;9907;42.676;26.348;2023-03-01T00:27:52;99717.09;;;6.55;100.00
19526;BME280;9907;42.676;26.348;2023-03-01T00:30:17;99716.63;;;6.49;100.00
19526;BME280;9907;42.676;26.348;2023-03-01T00:32:43;99720.91;;;6.51;100.00
19526;BME280;9907;42.676;26.348;2023-03-01T00:35:08;99724.97;;;6.57;100.00
19526;BME280;9907;42.676;26.348;2023-03-01T00:37:34;99722.06;;;6.61;100.00
19526;BME280;9907;42.676;26.348;2023-03-01T00:40:02;99721.66;;;6.67;100.00
19526;BME280;9907;42.676;26.348;2023-03-01T00:42:31;99713.75;;;6.80;100.00
19526;BME280;9907;42.676;26.348;2023-03-01T00:44:56;99709.50;;;6.77;100.00
19526;BME280;9907;42.676;26.348;2023-03-01T00:47:22;99705.25;;;6.75;100.00
19526;BME280;9907;42.676;26.348;2023-03-01T00:49:48;99714.25;;;6.72;100.00
19526;BME280;9907;42.676;26.348;2023-03-01T00:52:13;99701.53;;;6.77;100.00
19526;BME280;9907;42.676;26.348;2023-03-01T00:54:39;99705.69;;;6.81;100.00
19526;BME280;9907;42.676;26.348;2023-03-01T00:57:04;99710.59;;;6.88;100.00
19526;BME280;9907;42.676;26.348;2023-03-01T00:59:30;99704.47;;;6.87;100.00
19526;BME280;9907;42.676;26.348;2023-03-01T01:01:55;99701.03;;;6.85;100.00
19526;BME280;9907;42.676;26.348;2023-03-01T01:04:21;99697.31;;;6.88;100.00
19526;BME280;9907;42.676;26.348;2023-03-01T01:06:47;99691.47;;;6.82;100.00
19526;BME280;9907;42.676;26.348;2023-03-01T01:09:17;99697.81;;;6.80;100.00
19526;BME280;9907;42.676;26.348;2023-03-01T01:11:44;99691.50;;;6.68;100.00
19526;BME280;9907;42.676;26.348;2023-03-01T01:14:10;99692.91;;;6.74;100.00
19526;BME280;9907;42.676;26.348;2023-03-01T01:16:35;99685.78;;;6.74;100.00
19526;BME280;9907;42.676;26.348;2023-03-01T01:19:01;99691.09;;;6.74;100.00
19526;BME280;9907;42.676;26.348;2023-03-01T01:21:27;99688.53;;;6.73;100.00
19526;BME280;9907;42.676;26.348;2023-03-01T01:23:53;99692.16;;;6.72;100.00
19526;BME280;9907;42.676;26.348;2023-03-01T01:26:29;99687.88;;;6.69;100.00
19526;BME280;9907;42.676;26.348;2023-03-01T01:29:04;99686.00;;;6.71;100.00
19526;BME280;9907;42.676;26.348;2023-03-01T01:31:31;99687.13;;;6.67;100.00
19526;BME280;9907;42.676;26.348;2023-03-01T01:33:59;99688.66;;;6.71;100.00
19526;BME280;9907;42.676;26.348;2023-03-01T01:36:28;99685.72;;;6.76;100.00
19526;BME280;9907;42.676;26.348;2023-03-01T01:38:54;99683.72;;;6.79;100.00
19526;BME280;9907;42.676;26.348;2023-03-01T01:41:24;99678.41;;;6.79;100.00
19526;BME280;9907;42.676;26.348;2023-03-01T01:44:14;99680.31;;;6.63;100.00
19526;BME280;9907;42.676;26.348;2023-03-01T01:46:46;99690.53;;;6.69;100.00
19526;BME280;9907;42.676;26.348;2023-03-01T01:49:49;99688.06;;;6.66;100.00
19526;BME280;9907;42.676;26.348;2023-03-01T01:54:49;99685.72;;;6.76;100.00
19526;BME280;9907;42.676;26.348;2023-03-01T01:57:20;99689.47;;;6.86;100.00
19526;BME280;9907;42.676;26.348;2023-03-01T01:59:51;99680.44;;;6.89;100.00
19526;BME280;9907;42.676;26.348;2023-03-01T02:02:17;99683.31;;;6.85;100.00
19526;BME280;9907;42.676;26.348;2023-03-01T02:04:44;99671.25;;;6.80;100.00
19526;BME280;9907;42.676;26.348;2023-03-01T02:07:18;99686.44;;;6.78;100.00
19526;BME280;9907;42.676;26.348;2023-03-01T02:09:47;99662.56;;;6.78;100.00
19526;BME280;9907;42.676;26.348;2023-03-01T02:12:18;99669.66;;;6.77;100.00
19526;BME280;9907;42.676;26.348;2023-03-01T02:14:44;99665.28;;;6.76;100.00
19526;BME280;9907;42.676;26.348;2023-03-01T02:17:11;99659.03;;;6.77;100.00
19526;BME280;9907;42.676;26.348;2023-03-01T02:19:48;99665.88;;;6.81;100.00
19526;BME280;9907;42.676;26.348;2023-03-01T02:22:28;99651.66;;;6.82;100.00
19526;BME280;9907;42.676;26.348;2023-03-01T02:27:45;99640.81;;;6.85;100.00
19526;BME280;9907;42.676;26.348;2023-03-01T02:30:13;99627.63;;;6.84;100.00
19526;BME280;9907;42.676;26.348;2023-03-01T02:32:40;99629.34;;;6.85;100.00
19526;BME280;9907;42.676;26.348;2023-03-01T02:35:09;99629.53;;;6.82;100.00
19526;BME280;9907;42.676;26.348;2023-03-01T02:37:37;99637.06;;;6.75;100.00
19526;BME280;9907;42.676;26.348;2023-03-01T02:40:06;99647.28;;;6.81;100.00
19526;BME280;9907;42.676;26.348;2023-03-01T02:42:42;99647.00;;;6.86;100.00
19526;BME280;9907;42.676;26.348;2023-03-01T02:45:10;99641.38;;;6.91;100.00
19526;BME280;9907;42.676;26.348;2023-03-01T02:47:36;99641.06;;;6.95;100.00
19526;BME280;9907;42.676;26.348;2023-03-01T02:50:02;99650.38;;;6.88;100.00
19526;BME280;9907;42.676;26.348;2023-03-01T02:52:45;99647.63;;;6.90;100.00
19526;BME280;9907;42.676;26.348;2023-03-01T02:55:16;99652.50;;;6.83;100.00
19526;BME280;9907;42.676;26.348;2023-03-01T02:57:44;99649.34;;;6.91;100.00
19526;BME280;9907;42.676;26.348;2023-03-01T03:00:14;99646.69;;;6.91;100.00
19526;BME280;9907;42.676;26.348;2023-03-01T03:02:49;99642.31;;;6.90;100.00
19526;BME280;9907;42.676;26.348;2023-03-01T03:05:24;99646.13;;;6.85;100.00
19526;BME280;9907;42.676;26.348;2023-03-01T03:07:50;99655.81;;;6.87;100.00
19526;BME280;9907;42.676;26.348;2023-03-01T03:10:25;99648.41;;;6.77;100.00
19526;BME280;9907;42.676;26.348;2023-03-01T03:12:53;99652.66;;;6.80;100.00
19526;BME280;9907;42.676;26.348;2023-03-01T03:15:19;99653.34;;;6.83;100.00
19526;BME280;9907;42.676;26.348;2023-03-01T03:17:46;99650.38;;;6.88;100.00
19526;BME280;9907;42.676;26.348;2023-03-01T03:20:16;99643.84;;;6.94;100.00
19526;BME280;9907;42.676;26.348;2023-03-01T03:22:50;99640.09;;;6.83;100.00
19526;BME280;9907;42.676;26.348;2023-03-01T03:25:17;99650.59;;;6.85;100.00
19526;BME280;9907;42.676;26.348;2023-03-01T03:27:43;99652.66;;;6.80;100.00
19526;BME280;9907;42.676;26.348;2023-03-01T03:30:13;99656.00;;;6.83;100.00
19526;BME280;9907;42.676;26.348;2023-03-01T03:32:40;99655.09;;;6.97;100.00
19526;BME280;9907;42.676;26.348;2023-03-01T03:35:07;99661.66;;;6.92;100.00
19526;BME280;9907;42.676;26.348;2023-03-01T03:37:41;99651.69;;;6.95;100.00
19526;BME280;9907;42.676;26.348;2023-03-01T03:40:26;99658.81;;;6.95;100.00
19526;BME280;9907;42.676;26.348;2023-03-01T03:42:51;99652.16;;;7.02;100.00
19526;BME280;9907;42.676;26.348;2023-03-01T03:45:17;99662.38;;;7.08;100.00
19526;BME280;9907;42.676;26.348;2023-03-01T03:48:04;99655.75;;;7.01;100.00
19526;BME280;9907;42.676;26.348;2023-03-01T03:50:30;99650.44;;;7.01;100.00
19526;BME280;9907;42.676;26.348;2023-03-01T03:52:55;99651.50;;;6.98;100.00
19526;BME280;9907;42.676;26.348;2023-03-01T03:55:21;99648.50;;;6.90;100.00
19526;BME280;9907;42.676;26.348;2023-03-01T04:00:40;99652.16;;;7.02;100.00
19526;BME280;9907;42.676;26.348;2023-03-01T04:03:06;99644.28;;;7.00;100.00
19526;BME280;9907;42.676;26.348;2023-03-01T04:05:32;99649.69;;;6.99;100.00
19526;BME280;9907;42.676;26.348;2023-03-01T04:07:58;99641.72;;;6.99;100.00
19526;BME280;9907;42.676;26.348;2023-03-01T04:10:32;99641.72;;;6.99;100.00
19526;BME280;9907;42.676;26.348;2023-03-01T04:13:01;99637.91;;;7.03;100.00
19526;BME280;9907;42.676;26.348;2023-03-01T04:15:30;99639.63;;;7.04;100.00
19526;BME280;9907;42.676;26.348;2023-03-01T04:17:57;99635.38;;;7.01;100.00
19526;BME280;9907;42.676;26.348;2023-03-01T04:20:26;99637.03;;;7.02;100.00
19526;BME280;9907;42.676;26.348;2023-03-01T04:23:05;99627.47;;;7.00;100.00
19526;BME280;9907;42.676;26.348;2023-03-01T04:25:50;99633.41;;;6.91;100.00
19526;BME280;9907;42.676;26.348;2023-03-01T04:28:29;99628.44;;;6.99;100.00
19526;BME280;9907;42.676;26.348;2023-03-01T04:30:56;99628.44;;;6.99;100.00
19526;BME280;9907;42.676;26.348;2023-03-01T04:33:23;99629.63;;;6.95;100.00
19526;BME280;9907;42.676;26.348;2023-03-01T04:35:50;99631.84;;;7.01;100.00
19526;BME280;9907;42.676;26.348;2023-03-01T04:38:17;99628.78;;;7.07;100.00
19526;BME280;9907;42.676;26.348;2023-03-01T04:40:45;99625.88;;;7.24;100.00
19526;BME280;9907;42.676;26.348;2023-03-01T04:43:12;99632.28;;;7.07;100.00
19526;BME280;9907;42.676;26.348;2023-03-01T04:45:40;99621.31;;;6.99;100.00
19526;BME280;9907;42.676;26.348;2023-03-01T04:48:06;99617.81;;;6.99;100.00
19526;BME280;9907;42.676;26.348;2023-03-01T04:50:31;99615.34;;;6.96;100.00
19526;BME280;9907;42.676;26.348;2023-03-01T04:52:57;99607.94;;;7.01;100.00
19526;BME280;9907;42.676;26.348;2023-03-01T04:55:27;99611.16;;;7.06;100.00
19526;BME280;9907;42.676;26.348;2023-03-01T04:57:53;99611.03;;;7.07;100.00
19526;BME280;9907;42.676;26.348;2023-03-01T05:00:19;99619.50;;;7.00;100.00
19526;BME280;9907;42.676;26.348;2023-03-01T05:02:55;99615.97;;;6.87;100.00
19526;BME280;9907;42.676;26.348;2023-03-01T05:05:30;99618.13;;;6.94;100.00
19526;BME280;9907;42.676;26.348;2023-03-01T05:08:02;99620.88;;;6.93;100.00
19526;BME280;9907;42.676;26.348;2023-03-01T05:10:30;99613.84;;;6.92;100.00
19526;BME280;9907;42.676;26.348;2023-03-01T05:13:00;99614.41;;;6.97;100.00
19526;BME280;9907;42.676;26.348;2023-03-01T05:15:27;99611.47;;;7.01;100.00
19526;BME280;9907;42.676;26.348;2023-03-01T05:17:54;99619.22;;;7.04;100.00
19526;BME280;9907;42.676;26.348;2023-03-01T05:20:21;99615.50;;;7.07;100.00
19526;BME280;9907;42.676;26.348;2023-03-01T05:22:50;99617.41;;;7.05;100.00
19526;BME280;9907;42.676;26.348;2023-03-01T05:25:16;99616.25;;;7.09;100.00
19526;BME280;9907;42.676;26.348;2023-03-01T05:27:42;99622.44;;;7.09;100.00
19526;BME280;9907;42.676;26.348;2023-03-01T05:30:08;99628.78;;;7.07;100.00
19526;BME280;9907;42.676;26.348;2023-03-01T05:32:56;99633.16;;;7.08;100.00
19526;BME280;9907;42.676;26.348;2023-03-01T05:35:24;99629.22;;;7.13;100.00
19526;BME280;9907;42.676;26.348;2023-03-01T05:37:50;99632.66;;;7.15;100.00
19526;BME280;9907;42.676;26.348;2023-03-01T05:40:18;99639.19;;;7.10;100.00
19526;BME280;9907;42.676;26.348;2023-03-01T05:42:45;99637.09;;;7.15;100.00
19526;BME280;9907;42.676;26.348;2023-03-01T05:45:17;99637.50;;;7.09;100.00
19526;BME280;9907;42.676;26.348;2023-03-01T05:47:44;99649.31;;;7.17;100.00
19526;BME280;9907;42.676;26.348;2023-03-01T05:50:16;99646.94;;;7.27;100.00
19526;BME280;9907;42.676;26.348;2023-03-01T05:52:47;99650.88;;;7.34;100.00
19526;BME280;9907;42.676;26.348;2023-03-01T05:55:14;99655.03;;;7.38;100.00
19526;BME280;9907;42.676;26.348;2023-03-01T05:57:40;99659.56;;;7.23;100.00
19526;BME280;9907;42.676;26.348;2023-03-01T06:00:07;99662.09;;;7.25;100.00
19526;BME280;9907;42.676;26.348;2023-03-01T06:02:33;99660.88;;;7.30;100.00
19526;BME280;9907;42.676;26.348;2023-03-01T06:04:58;99651.97;;;7.44;100.00
19526;BME280;9907;42.676;26.348;2023-03-01T06:07:24;99647.41;;;7.46;100.00
19526;BME280;9907;42.676;26.348;2023-03-01T06:09:49;99648.00;;;7.37;100.00
19526;BME280;9907;42.676;26.348;2023-03-01T06:12:15;99651.81;;;7.33;100.00
19526;BME280;9907;42.676;26.348;2023-03-01T06:14:40;99664.91;;;7.36;100.00
19526;BME280;9907;42.676;26.348;2023-03-01T06:17:06;99654.59;;;7.31;100.00
19526;BME280;9907;42.676;26.348;2023-03-01T06:19:31;99653.75;;;7.31;100.00
19526;BME280;9907;42.676;26.348;2023-03-01T06:21:57;99651.47;;;7.25;100.00
19526;BME280;9907;42.676;26.348;2023-03-01T06:24:25;99643.13;;;7.31;100.00
19526;BME280;9907;42.676;26.348;2023-03-01T06:26:52;99651.81;;;7.33;100.00
19526;BME280;9907;42.676;26.348;2023-03-01T06:29:18;99656.13;;;7.21;100.00
19526;BME280;9907;42.676;26.348;2023-03-01T06:31:43;99651.13;;;7.17;100.00
19526;BME280;9907;42.676;26.348;2023-03-01T06:34:11;99658.28;;;7.16;100.00
19526;BME280;9907;42.676;26.348;2023-03-01T06:36:39;99656.66;;;7.14;100.00
19526;BME280;9907;42.676;26.348;2023-03-01T06:39:04;99662.44;;;7.20;100.00
19526;BME280;9907;42.676;26.348;2023-03-01T06:41:30;99659.34;;;7.26;100.00
19526;BME280;9907;42.676;26.348;2023-03-01T06:43:56;99659.66;;;7.22;100.00
19526;BME280;9907;42.676;26.348;2023-03-01T06:46:24;99657.66;;;7.25;100.00
19526;BME280;9907;42.676;26.348;2023-03-01T06:48:49;99653.84;;;7.29;100.00
19526;BME280;9907;42.676;26.348;2023-03-01T06:51:15;99655.13;;;7.37;100.00
19526;BME280;9907;42.676;26.348;2023-03-01T06:53:40;99648.75;;;7.39;100.00
19526;BME280;9907;42.676;26.348;2023-03-01T06:56:06;99653.88;;;7.42;100.00
19526;BME280;9907;42.676;26.348;2023-03-01T06:58:32;99652.25;;;7.40;100.00
19526;BME280;9907;42.676;26.348;2023-03-01T07:00:57;99656.84;;;7.38;100.00
19526;BME280;9907;42.676;26.348;2023-03-01T07:03:22;99654.28;;;7.36;100.00
19526;BME280;9907;42.676;26.348;2023-03-01T07:05:50;99657.19;;;7.46;100.00
19526;BME280;9907;42.676;26.348;2023-03-01T07:08:18;99652.72;;;7.46;100.00
19526;BME280;9907;42.676;26.348;2023-03-01T07:10:44;99651.97;;;7.44;100.00
19526;BME280;9907;42.676;26.348;2023-03-01T07:13:09;99656.97;;;7.49;100.00
19526;BME280;9907;42.676;26.348;2023-03-01T07:15:35;99648.88;;;7.50;100.00
19526;BME280;9907;42.676;26.348;2023-03-01T07:18:01;99651.53;;;7.38;100.00
19526;BME280;9907;42.676;26.348;2023-03-01T07:20:26;99650.22;;;7.30;100.00
19526;BME280;9907;42.676;26.348;2023-03-01T07:22:57;99651.53;;;7.38;100.00
19526;BME280;9907;42.676;26.348;2023-03-01T07:25:24;99659.94;;;7.44;100.00
19526;BME280;9907;42.676;26.348;2023-03-01T07:27:50;99651.38;;;7.26;100.00
19526;BME280;9907;42.676;26.348;2023-03-01T07:30:20;99649.16;;;7.33;100.00
19526;BME280;9907;42.676;26.348;2023-03-01T07:32:45;99649.06;;;7.34;100.00
19526;BME280;9907;42.676;26.348;2023-03-01T07:35:11;99651.22;;;7.42;100.00
19526;BME280;9907;42.676;26.348;2023-03-01T07:37:36;99658.09;;;7.32;100.00
19526;BME280;9907;42.676;26.348;2023-03-01T07:40:02;99651.97;;;7.44;100.00
19526;BME280;9907;42.676;26.348;2023-03-01T07:42:31;99650.38;;;7.54;100.00
19526;BME280;9907;42.676;26.348;2023-03-01T07:44:56;99663.56;;;7.56;100.00
19526;BME280;9907;42.676;26.348;2023-03-01T07:47:22;99653.16;;;7.53;100.00
19526;BME280;9907;42.676;26.348;2023-03-01T07:49:48;99649.34;;;7.57;100.00
19526;BME280;9907;42.676;26.348;2023-03-01T07:52:14;99653.16;;;7.65;100.00
19526;BME280;9907;42.676;26.348;2023-03-01T07:54:42;99653.50;;;7.61;100.00
19526;BME280;9907;42.676;26.348;2023-03-01T07:57:08;99660.75;;;7.71;100.00
19526;BME280;9907;42.676;26.348;2023-03-01T07:59:36;99651.34;;;7.66;100.00
19526;BME280;9907;42.676;26.348;2023-03-01T08:02:01;99658.28;;;7.68;100.00
19526;BME280;9907;42.676;26.348;2023-03-01T08:04:31;99650.19;;;7.70;100.00
19526;BME280;9907;42.676;26.348;2023-03-01T08:06:56;99655.81;;;7.65;100.00
19526;BME280;9907;42.676;26.348;2023-03-01T08:09:22;99659.00;;;7.58;100.00
19526;BME280;9907;42.676;26.348;2023-03-01T08:11:47;99652.38;;;7.51;100.00
19526;BME280;9907;42.676;26.348;2023-03-01T08:14:13;99643.78;;;7.47;100.00
19526;BME280;9907;42.676;26.348;2023-03-01T08:16:38;99644.22;;;7.54;100.00
19526;BME280;9907;42.676;26.348;2023-03-01T08:19:09;99646.78;;;7.55;100.00
19526;BME280;9907;42.676;26.348;2023-03-01T08:21:35;99646.22;;;7.50;100.00
19526;BME280;9907;42.676;26.348;2023-03-01T08:24:02;99641.66;;;7.52;100.00
19526;BME280;9907;42.676;26.348;2023-03-01T08:26:28;99642.72;;;7.50;100.00
19526;BME280;9907;42.676;26.348;2023-03-01T08:28:53;99638.44;;;7.47;100.00
19526;BME280;9907;42.676;26.348;2023-03-01T08:31:27;99646.97;;;7.52;100.00
19526;BME280;9907;42.676;26.348;2023-03-01T08:33:56;99649.94;;;7.48;100.00
19526;BME280;9907;42.676;26.348;2023-03-01T08:36:34;99650.59;;;7.51;100.00
19526;BME280;9907;42.676;26.348;2023-03-01T08:39:01;99648.88;;;7.50;100.00
19526;BME280;9907;42.676;26.348;2023-03-01T08:41:27;99649.28;;;7.44;100.00
19526;BME280;9907;42.676;26.348;2023-03-01T08:43:53;99649.81;;;7.37;100.00
19526;BME280;9907;42.676;26.348;2023-03-01T08:46:27;99639.94;;;7.51;100.00
19526;BME280;9907;42.676;26.348;2023-03-01T08:48:52;99645.28;;;7.51;100.00
19526;BME280;9907;42.676;26.348;2023-03-01T08:51:19;99646.97;;;7.52;100.00
19526;BME280;9907;42.676;26.348;2023-03-01T08:53:46;99649.56;;;7.54;100.00
19526;BME280;9907;42.676;26.348;2023-03-01T08:56:12;99652.09;;;7.55;100.00
19526;BME280;9907;42.676;26.348;2023-03-01T08:58:38;99648.78;;;7.52;100.00
19526;BME280;9907;42.676;26.348;2023-03-01T09:01:09;99656.53;;;7.42;100.00
19526;BME280;9907;42.676;26.348;2023-03-01T09:03:35;99647.78;;;7.40;100.00
19526;BME280;9907;42.676;26.348;2023-03-01T09:06:02;99642.91;;;7.34;100.00
19526;BME280;9907;42.676;26.348;2023-03-01T09:08:28;99644.16;;;7.28;100.00
19526;BME280;9907;42.676;26.348;2023-03-01T09:10:54;99644.06;;;7.30;100.00
19526;BME280;9907;42.676;26.348;2023-03-01T09:13:19;99650.56;;;7.39;100.00
19526;BME280;9907;42.676;26.348;2023-03-01T09:15:45;99644.84;;;7.45;100.00
19526;BME280;9907;42.676;26.348;2023-03-01T09:18:10;99643.88;;;7.46;100.00
19526;BME280;9907;42.676;26.348;2023-03-01T09:20:36;99632.78;;;7.39;100.00
19526;BME280;9907;42.676;26.348;2023-03-01T09:23:01;99630.34;;;7.36;100.00
19526;BME280;9907;42.676;26.348;2023-03-01T09:25:27;99633.66;;;7.40;100.00
19526;BME280;9907;42.676;26.348;2023-03-01T09:27:54;99634.28;;;7.43;100.00
19526;BME280;9907;42.676;26.348;2023-03-01T09:30:20;99633.66;;;7.40;100.00
19526;BME280;9907;42.676;26.348;2023-03-01T09:32:46;99628.59;;;7.49;100.00
19526;BME280;9907;42.676;26.348;2023-03-01T09:35:12;99631.34;;;7.48;100.00
19526;BME280;9907;42.676;26.348;2023-03-01T09:37:38;99632.06;;;7.37;100.00
19526;BME280;9907;42.676;26.348;2023-03-01T09:40:28;99623.91;;;7.53;100.00
19526;BME280;9907;42.676;26.348;2023-03-01T09:43:14;99629.75;;;7.58;100.00
19526;BME280;9907;42.676;26.348;2023-03-01T09:45:42;99625.72;;;7.52;100.00
19526;BME280;9907;42.676;26.348;2023-03-01T09:48:18;99638.38;;;7.61;100.00
19526;BME280;9907;42.676;26.348;2023-03-01T09:50:47;99630.59;;;7.58;100.00
19526;BME280;9907;42.676;26.348;2023-03-01T09:53:16;99622.75;;;7.69;100.00
19526;BME280;9907;42.676;26.348;2023-03-01T09:59:26;99620.00;;;7.71;100.00
19526;BME280;9907;42.676;26.348;2023-03-01T10:01:53;99616.59;;;7.81;100.00
19526;BME280;9907;42.676;26.348;2023-03-01T10:09:39;99613.72;;;7.72;100.00
19526;BME280;9907;42.676;26.348;2023-03-01T10:12:10;99619.56;;;7.77;99.63
19526;BME280;9907;42.676;26.348;2023-03-01T10:14:41;99614.78;;;7.82;99.85
19526;BME280;9907;42.676;26.348;2023-03-01T10:17:30;99613.84;;;7.83;99.43
19526;BME280;9907;42.676;26.348;2023-03-01T10:20:14;99610.31;;;7.82;99.19
19526;BME280;9907;42.676;26.348;2023-03-01T10:22:42;99614.03;;;7.80;100.00
19526;BME280;9907;42.676;26.348;2023-03-01T10:25:13;99607.66;;;7.82;100.00
19526;BME280;9907;42.676;26.348;2023-03-01T10:27:54;99603.28;;;7.81;100.00
19526;BME280;9907;42.676;26.348;2023-03-01T10:30:40;99608.50;;;7.70;99.66
19526;BME280;9907;42.676;26.348;2023-03-01T10:33:24;99602.09;;;7.73;100.00
19526;BME280;9907;42.676;26.348;2023-03-01T10:35:54;99608.59;;;7.69;100.00
19526;BME280;9907;42.676;26.348;2023-03-01T10:38:20;99605.19;;;7.54;100.00
19526;BME280;9907;42.676;26.348;2023-03-01T10:40:58;99608.06;;;7.51;100.00
19526;BME280;9907;42.676;26.348;2023-03-01T10:43:40;99603.63;;;7.64;100.00
19526;BME280;9907;42.676;26.348;2023-03-01T10:49:23;99589.56;;;7.62;100.00
19526;BME280;9907;42.676;26.348;2023-03-01T10:51:52;99579.88;;;7.61;100.00
19526;BME280;9907;42.676;26.348;2023-03-01T10:54:37;99582.09;;;7.80;100.00
19526;BME280;9907;42.676;26.348;2023-03-01T10:57:04;99579.13;;;7.59;100.00
19526;BME280;9907;42.676;26.348;2023-03-01T10:59:35;99572.13;;;7.71;100.00
19526;BME280;9907;42.676;26.348;2023-03-01T11:02:24;99564.03;;;7.85;100.00
19526;BME280;9907;42.676;26.348;2023-03-01T11:07:26;99552.75;;;7.81;100.00
19526;BME280;9907;42.676;26.348;2023-03-01T11:09:52;99556.16;;;7.83;100.00
19526;BME280;9907;42.676;26.348;2023-03-01T11:12:17;99551.28;;;7.77;100.00
19526;BME280;9907;42.676;26.348;2023-03-01T11:15:02;99549.78;;;7.73;100.00
19526;BME280;9907;42.676;26.348;2023-03-01T11:17:31;99539.59;;;7.67;100.00
19526;BME280;9907;42.676;26.348;2023-03-01T11:22:57;99531.59;;;7.67;100.00
19526;BME280;9907;42.676;26.348;2023-03-01T11:25:26;99530.00;;;7.77;100.00
19526;BME280;9907;42.676;26.348;2023-03-01T11:27:54;99530.22;;;7.74;100.00
19526;BME280;9907;42.676;26.348;2023-03-01T11:30:29;99528.50;;;7.73;100.00
19526;BME280;9907;42.676;26.348;2023-03-01T11:35:36;99519.75;;;7.97;100.00
19526;BME280;9907;42.676;26.348;2023-03-01T11:38:21;99515.78;;;8.02;100.00
19526;BME280;9907;42.676;26.348;2023-03-01T11:55:24;99497.38;;;8.12;100.00
19526;BME280;9907;42.676;26.348;2023-03-01T11:58:05;99502.00;;;8.21;100.00
19526;BME280;9907;42.676;26.348;2023-03-01T12:04:09;99502.25;;;8.18;100.00
19526;BME280;9907;42.676;26.348;2023-03-01T12:40:23;99492.75;;;8.26;100.00
19526;BME280;9907;42.676;26.348;2023-03-01T12:42:20;99497.78;;;8.31;100.00
19526;BME280;9907;42.676;26.348;2023-03-01T12:50:47;99470.84;;;8.23;100.00
19526;BME280;9907;42.676;26.348;2023-03-01T12:53:39;99477.22;;;8.33;100.00
19526;BME280;9907;42.676;26.348;2023-03-01T12:56:10;99478.81;;;8.23;100.00
19526;BME280;9907;42.676;26.348;2023-03-01T13:04:18;99482.88;;;8.16;100.00
19526;BME280;9907;42.676;26.348;2023-03-01T13:07:11;99478.22;;;8.07;100.00
19526;BME280;9907;42.676;26.348;2023-03-01T13:10:02;99471.41;;;8.03;100.00
19526;BME280;9907;42.676;26.348;2023-03-01T13:13:01;99481.41;;;8.12;100.00
19526;BME280;9907;42.676;26.348;2023-03-01T13:15:28;99471.16;;;8.31;100.00
19526;BME280;9907;42.676;26.348;2023-03-01T13:20:50;99467.75;;;8.29;100.00
19526;BME280;9907;42.676;26.348;2023-03-01T13:26:15;99480.66;;;8.10;100.00
19526;BME280;9907;42.676;26.348;2023-03-01T13:33:55;99483.72;;;8.29;100.00
19526;BME280;9907;42.676;26.348;2023-03-01T13:44:35;99491.28;;;7.73;100.00
19526;BME280;9907;42.676;26.348;2023-03-01T14:00:41;99503.25;;;6.78;100.00
19526;BME280;9907;42.676;26.348;2023-03-01T14:03:19;99494.53;;;6.89;100.00
19526;BME280;9907;42.676;26.348;2023-03-01T14:06:15;99485.63;;;7.02;100.00
19526;BME280;9907;42.676;26.348;2023-03-01T14:08:44;99483.19;;;6.99;100.00
19526;BME280;9907;42.676;26.348;2023-03-01T14:16:29;99483.53;;;6.95;100.00
19526;BME280;9907;42.676;26.348;2023-03-01T14:19:14;99484.47;;;6.94;100.00
19526;BME280;9907;42.676;26.348;2023-03-01T14:21:42;99473.44;;;6.87;100.00
19526;BME280;9907;42.676;26.348;2023-03-01T14:24:20;99477.66;;;6.90;100.00
19526;BME280;9907;42.676;26.348;2023-03-01T14:26:45;99475.13;;;7.01;100.00
19526;BME280;9907;42.676;26.348;2023-03-01T14:29:34;99469.91;;;6.99;100.00
19526;BME280;9907;42.676;26.348;2023-03-01T14:32:20;99477.97;;;6.85;100.00
19526;BME280;9907;42.676;26.348;2023-03-01T14:34:48;99489.03;;;6.79;100.00
19526;BME280;9907;42.676;26.348;2023-03-01T14:37:24;99483.19;;;6.87;100.00
19526;BME280;9907;42.676;26.348;2023-03-01T14:39:51;99497.06;;;6.77;100.00
19526;BME280;9907;42.676;26.348;2023-03-01T14:42:18;99489.31;;;6.74;100.00
19526;BME280;9907;42.676;26.348;2023-03-01T14:44:50;99492.78;;;6.62;100.00
19526;BME280;9907;42.676;26.348;2023-03-01T14:47:30;99492.28;;;6.43;100.00
19526;BME280;9907;42.676;26.348;2023-03-01T14:50:02;99499.25;;;6.58;100.00
19526;BME280;9907;42.676;26.348;2023-03-01T14:52:38;99500.56;;;6.39;100.00
19526;BME280;9907;42.676;26.348;2023-03-01T14:55:16;99509.53;;;6.50;100.00
19526;BME280;9907;42.676;26.348;2023-03-01T14:57:45;99503.47;;;6.48;100.00
19526;BME280;9907;42.676;26.348;2023-03-01T15:00:24;99506.16;;;6.34;100.00
19526;BME280;9907;42.676;26.348;2023-03-01T15:02:52;99495.81;;;6.17;100.00
19526;BME280;9907;42.676;26.348;2023-03-01T15:05:31;99498.69;;;6.26;100.00
19526;BME280;9907;42.676;26.348;2023-03-01T15:08:00;99498.63;;;6.28;100.00
19526;BME280;9907;42.676;26.348;2023-03-01T15:10:32;99491.75;;;6.38;100.00
19526;BME280;9907;42.676;26.348;2023-03-01T15:13:13;99501.00;;;6.45;100.00
19526;BME280;9907;42.676;26.348;2023-03-01T15:15:43;99498.34;;;6.45;100.00
19526;BME280;9907;42.676;26.348;2023-03-01T15:20:42;99495.75;;;6.31;100.00
19526;BME280;9907;42.676;26.348;2023-03-01T15:23:27;99511.56;;;6.32;100.00
19526;BME280;9907;42.676;26.348;2023-03-01T15:25:55;99516.34;;;6.27;100.00